Station: Edinburgh

  Atmospheric Gas Attenuation - ITU Rec 676-11   --------------- db/100km ---------------
Date Time Temp RH % AH g/m3 Dew Point Wind Direction Speed kph Gust kph Barometer mB Rainfall Since 9am 24GHz 47GHz 76GHz 122GHz 134GHz 241GHz
13 08:40 4.1 94 6.02 3.2 6 6 1028.4 0.2 14.5 25.0 34.4 89.8 75.6 257.2
13 08:30 3.5 94 5.79 2.6 4 6 1028.4 0.2 14.0 24.8 33.7 87.9 73.0 248.0
13 08:20 3 94 5.59 2.1 0 0 1028.3 0.2 13.6 24.6 33.1 86.2 70.7 239.9
13 08:10 3 94 5.59 2.1 0 0 1028.1 0.2 13.6 24.6 33.1 86.2 70.7 239.8
13 08:00 3.3 94 5.71 2.4 0 0 1028 0.2 13.8 24.7 33.5 87.2 72.1 244.7
13 07:50 2.6 94 5.45 1.7 0 0 1027.9 0.2 13.3 24.4 32.7 85.1 69.2 234.3
13 07:40 2.3 94 5.34 1.4 0 0 1027.9 0.2 13.1 24.3 32.3 84.2 67.9 229.8
13 07:30 1.8 94 5.16 0.9 4 9 1027.8 0.2 12.7 24.2 31.8 82.7 65.9 222.6
13 07:20 1.8 94 5.16 0.9 4 6 1027.7 0.2 12.7 24.2 31.8 82.7 65.9 222.6
13 07:10 2.4 94 5.37 1.5 6 6 1027.6 0.2 13.1 24.3 32.4 84.4 68.2 230.9
13 07:00 2.8 94 5.52 1.9 6 7 1027.4 0.2 13.4 24.5 32.9 85.6 69.9 236.9
13 06:50 3.2 94 5.67 2.3 6 7 1027.3 0.2 13.7 24.6 33.3 86.8 71.6 242.9
13 06:40 3.6 94 5.82 2.7 6 7 1027.3 0.2 14.1 24.7 33.8 88.0 73.3 248.9
13 06:30 4.2 94 6.06 3.3 9 13 1027.2 0.2 14.5 25.0 34.5 90.0 76.0 258.5
13 06:20 4.1 94 6.02 3.2 11 13 1027 0.2 14.5 24.9 34.4 89.6 75.5 256.8
13 06:10 4 94 5.98 3.1 9 11 1026.9 0.2 14.4 24.9 34.2 89.3 75.1 255.2
13 06:00 4.1 94 6.02 3.2 9 11 1026.8 0.2 14.5 24.9 34.4 89.6 75.5 256.8
13 05:50 4.3 94 6.1 3.4 7 9 1026.9 0 14.6 25.0 34.6 90.3 76.4 260.0
13 05:40 3.9 94 5.94 3 6 7 1026.8 0 14.3 24.8 34.1 89.0 74.6 253.6
13 05:30 3.3 93 5.65 2.3 6 7 1026.8 0 13.7 24.5 33.2 86.4 71.2 241.5
13 05:20 3.7 94 5.86 2.8 6 7 1026.8 0 14.1 24.8 33.9 88.3 73.7 250.4
13 05:10 3.6 93 5.76 2.6 7 9 1026.6 0 13.9 24.6 33.5 87.3 72.4 245.8
13 04:50 4.1 93 5.96 3.1 7 9 1026.4 0 14.3 24.8 34.1 88.9 74.7 253.8
13 04:40 4.1 94 6.02 3.2 11 11 1026.3 0 14.5 24.9 34.3 89.6 75.5 256.7
13 04:30 3.5 93 5.72 2.5 6 7 1026.3 0 13.8 24.6 33.3 86.9 71.9 244.2
13 04:20 3.6 93 5.76 2.6 4 6 1026.3 0 13.9 24.6 33.5 87.2 72.4 245.8
13 04:10 3.4 93 5.69 2.4 7 9 1026.2 0 13.8 24.5 33.3 86.7 71.6 243.0
13 04:00 3.7 93 5.8 2.7 9 11 1026.1 0 14.0 24.6 33.6 87.6 72.8 247.3
13 03:50 3.6 93 5.76 2.6 11 11 1026.2 0 13.9 24.6 33.5 87.2 72.4 245.8
13 03:40 3.3 92 5.59 2.1 9 9 1026.1 0 13.6 24.4 32.9 85.7 70.3 238.5
13 03:30 3.5 92 5.66 2.3 11 15 1026.2 0 13.7 24.5 33.1 86.2 71.1 241.3
13 03:20 3.9 93 5.88 2.9 9 9 1026.1 0 14.2 24.7 33.8 88.2 73.7 250.6
13 03:10 3.9 92 5.82 2.7 7 7 1026.2 0 14.0 24.6 33.6 87.6 72.9 247.7
13 03:00 5.4 94 6.56 4.5 13 17 1026.1 0 15.6 25.4 36.0 94.1 81.6 278.3
13 02:50 5 94 6.39 4.1 13 15 1026.1 0 15.2 25.3 35.5 92.6 79.7 271.5
13 02:40 4.1 93 5.96 3.1 9 11 1026.2 0 14.3 24.8 34.1 88.9 74.7 253.8
13 02:30 3.1 92 5.51 1.9 7 9 1026.1 0 13.4 24.3 32.6 85.0 69.4 235.3
13 02:20 4.4 93 6.08 3.4 7 9 1026 0 14.6 24.9 34.4 89.9 76.0 258.5
13 02:10 3.8 93 5.84 2.8 2 4 1025.9 0 14.1 24.7 33.7 87.9 73.3 248.9
13 02:00 3.8 92 5.78 2.6 7 9 1025.9 0 14.0 24.6 33.5 87.2 72.5 246.0
13 01:50 3.8 91 5.71 2.5 9 9 1026 0 13.8 24.5 33.2 86.4 71.5 242.7
13 01:40 5.7 93 6.62 4.7 6 6 1025.8 0 15.7 25.4 36.1 94.3 82.1 280.1
13 01:30 5.2 93 6.41 4.2 11 13 1025.7 0 15.3 25.2 35.5 92.6 79.7 271.7
13 01:20 4.3 93 6.04 3.3 9 9 1025.7 0 14.5 24.9 34.3 89.5 75.5 256.9
13 01:10 4.2 92 5.93 3 11 11 1025.7 0 14.3 24.7 33.9 88.4 74.1 251.9
13 01:00 4.4 92 6.01 3.2 9 13 1025.6 0 14.4 24.8 34.1 89.0 75.0 255.1
13 00:50 5.8 93 6.67 4.8 9 9 1025.7 0 15.8 25.5 36.3 94.8 82.7 282.1
13 00:40 6 93 6.75 5 9 9 1025.7 0 16.0 25.6 36.5 95.4 83.6 285.3
13 00:30 5.8 93 6.67 4.8 7 11 1025.7 0 15.8 25.5 36.3 94.8 82.7 282.1
13 00:20 4.7 92 6.13 3.5 9 11 1025.7 0 14.7 24.9 34.5 90.0 76.4 259.9
13 00:10 4.5 91 5.99 3.2 9 9 1025.7 0 14.4 24.7 34.0 88.7 74.6 253.8
13 00:00 6.3 92 6.81 5.1 6 7 1025.7 0 16.1 25.6 36.6 95.7 84.1 287.1
12 23:50 6.1 92 6.73 4.9 6 7 1025.6 0 15.9 25.5 36.4 95.1 83.2 283.9
12 23:40 6.4 92 6.86 5.2 6 6 1025.7 0 16.2 25.6 36.8 96.2 84.6 289.1
12 23:30 6.4 93 6.93 5.4 4 7 1025.7 0 16.3 25.8 37.1 96.9 85.6 292.5
12 23:20 5.9 92 6.64 4.7 0 0 1025.7 0 15.7 25.4 36.1 94.3 82.1 280.3
12 23:10 5.1 91 6.23 3.8 6 6 1025.6 0 14.9 24.9 34.8 90.7 77.3 263.3
12 23:00 4.9 90 6.08 3.4 6 9 1025.5 0 14.6 24.8 34.2 89.2 75.5 256.8
12 22:50 6.9 91 7.01 5.5 6 6 1025.5 0 16.5 25.7 37.2 97.2 86.1 294.4
12 22:40 6.9 91 7.01 5.5 7 7 1025.4 0 16.5 25.7 37.2 97.2 86.1 294.4
12 22:30 7.1 91 7.1 5.7 6 7 1025.3 0 16.7 25.8 37.5 97.9 87.1 298.0
12 22:20 6.7 91 6.92 5.3 6 6 1025.2 0 16.3 25.6 36.9 96.4 85.1 290.8
12 22:10 5.9 90 6.49 4.4 0 0 1025.2 0 15.4 25.1 35.5 92.6 80.0 273.0
12 22:00 5.6 88 6.23 3.8 0 0 1025.2 0 14.9 24.8 34.5 90.1 76.8 261.6
12 21:50 5.5 86 6.04 3.3 0 0 1025.2 0 14.5 24.5 33.8 88.1 74.3 252.9
12 21:40 5.8 82 5.88 3 0 0 1025.2 0 14.1 24.2 33.0 86.0 71.9 244.4
12 21:30 7.7 83 6.73 5 6 7 1025.3 0 15.8 25.0 35.6 93.1 81.4 278.1
12 21:20 9.1 87 7.72 7.1 7 7 1025.3 0 17.9 26.3 39.1 102.3 93.3 320.0
12 21:10 9.4 86 7.78 7.2 7 9 1025.2 0 18.0 26.3 39.2 102.6 93.8 321.6
12 21:00 9.4 87 7.87 7.3 9 11 1025.3 0 18.2 26.4 39.6 103.6 95.0 326.0
12 20:50 9.2 86 7.68 7 9 9 1025.3 0 17.8 26.2 38.9 101.7 92.7 317.6
12 20:40 9.2 87 7.77 7.2 9 9 1025.3 0 18.0 26.3 39.2 102.7 93.9 322.0
12 20:30 8.7 87 7.53 6.7 11 11 1025.1 0 17.5 26.1 38.5 100.7 91.2 312.4
12 20:20 8.5 85 7.26 6.1 11 11 1024.9 0 17.0 25.7 37.4 97.9 87.7 300.2
12 20:10 9.1 83 7.37 6.4 11 11 1024.8 0 17.2 25.7 37.6 98.4 88.5 303.1
12 20:00 9.8 84 7.8 7.2 9 11 1024.7 0 18.1 26.2 39.0 102.2 93.5 320.8
12 19:50 9.5 85 7.74 7.1 11 11 1024.6 0 17.9 26.2 38.9 101.9 93.1 319.1
12 19:40 8.7 83 7.18 6 13 13 1024.4 0 16.8 25.5 37.0 96.7 86.4 295.5
12 19:30 9.5 82 7.47 6.6 7 11 1024.3 0 17.4 25.7 37.8 98.9 89.4 306.2
12 19:20 9.4 81 7.33 6.3 7 9 1024.1 0 17.1 25.5 37.3 97.5 87.6 299.9
12 19:10 10.2 78 7.42 6.5 9 9 1024.1 0 17.2 25.4 37.3 97.5 87.9 301.1
12 19:00 10.5 77 7.47 6.6 9 13 1023.9 0 17.3 25.4 37.3 97.6 88.2 302.2
12 18:50 11.5 75 7.75 7.2 11 13 1023.8 0 17.9 25.6 38.0 99.4 90.8 311.3
12 18:40 11.4 75 7.7 7.1 11 13 1023.7 0 17.8 25.5 37.8 99.0 90.2 309.4
12 18:30 11.1 73 7.35 6.5 11 13 1023.5 0 17.0 25.0 36.5 95.5 85.9 294.3
12 18:20 12 70 7.46 6.7 11 13 1023.4 0 17.2 25.0 36.6 95.6 86.3 295.9
12 18:10 12.4 68 7.43 6.7 11 13 1023.2 0 17.1 24.8 36.2 94.8 85.5 293.0
12 18:00 12.6 67 7.41 6.6 11 17 1023 0 17.1 24.7 36.1 94.3 85.0 291.3
12 17:50 12.8 66 7.39 6.6 11 15 1022.9 0 17.0 24.6 35.9 93.9 84.5 289.7
12 17:40 12.9 65 7.33 6.5 11 15 1022.7 0 16.9 24.5 35.6 93.1 83.6 286.6
12 17:30 13.2 65 7.46 6.8 13 15 1022.5 0 17.2 24.6 36.0 94.1 85.0 291.3
12 17:20 13.1 66 7.53 6.9 11 13 1022.4 0 17.3 24.7 36.3 94.9 86.0 294.8
12 17:10 13.5 63 7.37 6.6 11 13 1022.2 0 17.0 24.4 35.5 92.8 83.5 286.1
12 17:00 13.4 64 7.44 6.7 11 15 1022.1 0 17.1 24.5 35.8 93.6 84.5 289.5
12 16:50 14.1 60 7.28 6.5 9 11 1022 0 16.8 24.0 34.9 91.1 81.7 279.9
12 16:40 14.4 60 7.42 6.7 13 15 1021.9 0 17.0 24.2 35.3 92.2 83.1 285.0
12 16:30 14.5 57 7.09 6.1 11 17 1021.8 0 16.3 23.6 34.0 88.8 78.9 270.1
12 16:20 14.6 57 7.13 6.2 17 19 1021.7 0 16.4 23.7 34.1 89.0 79.3 271.5
12 16:10 14.6 57 7.13 6.2 17 20 1021.6 0 16.4 23.7 34.1 89.0 79.3 271.5
12 16:00 14.8 58 7.35 6.6 13 19 1021.5 0 16.9 24.0 34.8 91.0 81.8 280.4

Last Refresh: 13-Jul-2020 08:48:19

Most of the information presented on this site is sourced from the Bureau of Meteorology.  Copyright in all material sourced from the Bureau of Meteorology resides with the Commonwealth of Australia.